sensor_id;sensor_type;location;lat;lon;timestamp;temperature;humidity
5466;DHT22;2755;50.728;7.108;2023-03-16T00:01:45;2.00;87.70
5466;DHT22;2755;50.728;7.108;2023-03-16T00:04:11;2.10;84.20
5466;DHT22;2755;50.728;7.108;2023-03-16T00:06:37;1.90;83.40
5466;DHT22;2755;50.728;7.108;2023-03-16T00:09:03;2.30;85.40
5466;DHT22;2755;50.728;7.108;2023-03-16T00:16:21;2.40;83.10
5466;DHT22;2755;50.728;7.108;2023-03-16T00:18:46;2.30;82.00
5466;DHT22;2755;50.728;7.108;2023-03-16T00:21:13;2.10;81.60
5466;DHT22;2755;50.728;7.108;2023-03-16T00:23:39;2.50;84.40
5466;DHT22;2755;50.728;7.108;2023-03-16T00:26:06;2.20;81.80
5466;DHT22;2755;50.728;7.108;2023-03-16T00:28:33;2.20;85.20
5466;DHT22;2755;50.728;7.108;2023-03-16T00:31:07;1.80;81.10
5466;DHT22;2755;50.728;7.108;2023-03-16T00:33:36;2.30;85.20
5466;DHT22;2755;50.728;7.108;2023-03-16T00:36:03;2.30;82.50
5466;DHT22;2755;50.728;7.108;2023-03-16T00:38:34;2.40;85.20
5466;DHT22;2755;50.728;7.108;2023-03-16T00:41:00;2.20;82.40
5466;DHT22;2755;50.728;7.108;2023-03-16T00:43:30;2.10;79.70
5466;DHT22;2755;50.728;7.108;2023-03-16T00:45:59;2.40;81.40
5466;DHT22;2755;50.728;7.108;2023-03-16T00:51:02;1.70;84.50
5466;DHT22;2755;50.728;7.108;2023-03-16T00:53:29;2.00;84.70
5466;DHT22;2755;50.728;7.108;2023-03-16T00:55:55;2.70;85.00
5466;DHT22;2755;50.728;7.108;2023-03-16T00:58:21;2.20;81.90
5466;DHT22;2755;50.728;7.108;2023-03-16T01:00:47;2.20;83.80
5466;DHT22;2755;50.728;7.108;2023-03-16T01:03:13;1.80;81.20
5466;DHT22;2755;50.728;7.108;2023-03-16T01:05:39;1.90;79.60
5466;DHT22;2755;50.728;7.108;2023-03-16T01:10:35;2.60;80.70
5466;DHT22;2755;50.728;7.108;2023-03-16T01:13:01;2.10;83.90
5466;DHT22;2755;50.728;7.108;2023-03-16T01:15:29;2.80;80.50
5466;DHT22;2755;50.728;7.108;2023-03-16T01:20:20;2.10;79.00
5466;DHT22;2755;50.728;7.108;2023-03-16T01:22:46;2.40;77.00
5466;DHT22;2755;50.728;7.108;2023-03-16T01:25:13;2.30;78.30
5466;DHT22;2755;50.728;7.108;2023-03-16T01:27:39;2.20;77.00
5466;DHT22;2755;50.728;7.108;2023-03-16T01:30:05;3.20;77.50
5466;DHT22;2755;50.728;7.108;2023-03-16T01:32:31;2.50;76.20
5466;DHT22;2755;50.728;7.108;2023-03-16T01:34:57;2.50;76.00
5466;DHT22;2755;50.728;7.108;2023-03-16T01:37:22;2.50;79.60
5466;DHT22;2755;50.728;7.108;2023-03-16T01:39:48;1.80;75.10
5466;DHT22;2755;50.728;7.108;2023-03-16T01:42:14;2.40;79.30
5466;DHT22;2755;50.728;7.108;2023-03-16T01:44:55;2.30;74.70
5466;DHT22;2755;50.728;7.108;2023-03-16T01:47:21;2.30;75.80
5466;DHT22;2755;50.728;7.108;2023-03-16T01:49:50;2.40;76.90
5466;DHT22;2755;50.728;7.108;2023-03-16T01:52:22;1.90;79.40
5466;DHT22;2755;50.728;7.108;2023-03-16T01:54:50;2.30;77.30
5466;DHT22;2755;50.728;7.108;2023-03-16T01:57:38;2.30;76.20
5466;DHT22;2755;50.728;7.108;2023-03-16T02:00:08;2.90;78.20
5466;DHT22;2755;50.728;7.108;2023-03-16T02:02:38;2.90;77.90
5466;DHT22;2755;50.728;7.108;2023-03-16T02:05:18;2.30;74.70
5466;DHT22;2755;50.728;7.108;2023-03-16T02:07:47;2.30;79.60
5466;DHT22;2755;50.728;7.108;2023-03-16T02:10:16;2.30;79.50
5466;DHT22;2755;50.728;7.108;2023-03-16T02:12:42;2.10;77.30
5466;DHT22;2755;50.728;7.108;2023-03-16T02:15:09;2.40;78.50
5466;DHT22;2755;50.728;7.108;2023-03-16T02:17:36;1.90;77.20
5466;DHT22;2755;50.728;7.108;2023-03-16T02:20:25;2.30;73.70
5466;DHT22;2755;50.728;7.108;2023-03-16T02:22:57;2.30;72.30
5466;DHT22;2755;50.728;7.108;2023-03-16T02:25:25;2.30;73.10
5466;DHT22;2755;50.728;7.108;2023-03-16T02:30:52;2.30;72.60
5466;DHT22;2755;50.728;7.108;2023-03-16T02:33:18;3.00;73.00
5466;DHT22;2755;50.728;7.108;2023-03-16T02:35:45;2.40;75.70
5466;DHT22;2755;50.728;7.108;2023-03-16T02:40:37;2.40;71.70
5466;DHT22;2755;50.728;7.108;2023-03-16T02:43:06;3.00;73.00
5466;DHT22;2755;50.728;7.108;2023-03-16T02:45:45;2.40;71.60
5466;DHT22;2755;50.728;7.108;2023-03-16T02:48:17;2.40;72.70
5466;DHT22;2755;50.728;7.108;2023-03-16T02:50:49;2.30;75.80
5466;DHT22;2755;50.728;7.108;2023-03-16T02:53:15;2.50;76.10
5466;DHT22;2755;50.728;7.108;2023-03-16T02:55:41;2.50;75.90
5466;DHT22;2755;50.728;7.108;2023-03-16T02:58:07;2.30;73.00
5466;DHT22;2755;50.728;7.108;2023-03-16T03:00:33;2.30;73.00
5466;DHT22;2755;50.728;7.108;2023-03-16T03:02:58;2.60;76.70
5466;DHT22;2755;50.728;7.108;2023-03-16T03:05:24;2.80;77.00
5466;DHT22;2755;50.728;7.108;2023-03-16T03:07:50;1.80;72.70
5466;DHT22;2755;50.728;7.108;2023-03-16T03:15:09;2.30;77.20
5466;DHT22;2755;50.728;7.108;2023-03-16T03:17:34;1.90;74.40
5466;DHT22;2755;50.728;7.108;2023-03-16T03:20:01;2.50;75.50
5466;DHT22;2755;50.728;7.108;2023-03-16T03:22:32;2.60;78.60
5466;DHT22;2755;50.728;7.108;2023-03-16T03:24:58;2.40;75.10
5466;DHT22;2755;50.728;7.108;2023-03-16T03:27:23;2.50;74.40
5466;DHT22;2755;50.728;7.108;2023-03-16T03:29:49;2.40;76.10
5466;DHT22;2755;50.728;7.108;2023-03-16T03:34:40;2.50;77.60
5466;DHT22;2755;50.728;7.108;2023-03-16T03:37:07;2.90;74.40
5466;DHT22;2755;50.728;7.108;2023-03-16T03:39:32;2.50;73.50
5466;DHT22;2755;50.728;7.108;2023-03-16T03:41:58;2.60;76.90
5466;DHT22;2755;50.728;7.108;2023-03-16T03:44:23;2.30;73.00
5466;DHT22;2755;50.728;7.108;2023-03-16T03:46:49;2.80;73.30
5466;DHT22;2755;50.728;7.108;2023-03-16T03:49:16;2.40;72.70
5466;DHT22;2755;50.728;7.108;2023-03-16T03:51:42;2.50;73.00
5466;DHT22;2755;50.728;7.108;2023-03-16T03:54:07;2.30;72.20
5466;DHT22;2755;50.728;7.108;2023-03-16T03:56:33;2.40;74.20
5466;DHT22;2755;50.728;7.108;2023-03-16T04:01:25;2.30;72.80
5466;DHT22;2755;50.728;7.108;2023-03-16T04:03:50;2.40;73.00
5466;DHT22;2755;50.728;7.108;2023-03-16T04:08:42;2.00;72.80
5466;DHT22;2755;50.728;7.108;2023-03-16T04:11:07;2.40;72.70
5466;DHT22;2755;50.728;7.108;2023-03-16T04:13:33;2.40;74.00
5466;DHT22;2755;50.728;7.108;2023-03-16T04:16:00;2.00;75.20
5466;DHT22;2755;50.728;7.108;2023-03-16T04:21:04;3.20;71.90
5466;DHT22;2755;50.728;7.108;2023-03-16T04:23:31;2.50;73.00
5466;DHT22;2755;50.728;7.108;2023-03-16T04:26:00;2.60;72.90
5466;DHT22;2755;50.728;7.108;2023-03-16T04:28:26;2.30;71.80
5466;DHT22;2755;50.728;7.108;2023-03-16T04:30:52;2.60;72.90
5466;DHT22;2755;50.728;7.108;2023-03-16T04:33:21;2.60;74.30
5466;DHT22;2755;50.728;7.108;2023-03-16T04:35:47;2.60;71.70
5466;DHT22;2755;50.728;7.108;2023-03-16T04:38:13;2.60;72.90
5466;DHT22;2755;50.728;7.108;2023-03-16T04:40:39;3.20;72.60
5466;DHT22;2755;50.728;7.108;2023-03-16T04:43:04;2.60;71.70
5466;DHT22;2755;50.728;7.108;2023-03-16T04:50:22;3.20;75.70
5466;DHT22;2755;50.728;7.108;2023-03-16T04:55:14;2.80;70.30
5466;DHT22;2755;50.728;7.108;2023-03-16T05:02:43;3.00;71.70
5466;DHT22;2755;50.728;7.108;2023-03-16T05:05:09;2.80;73.40
5466;DHT22;2755;50.728;7.108;2023-03-16T05:07:35;2.90;73.60
5466;DHT22;2755;50.728;7.108;2023-03-16T05:10:00;2.30;69.00
5466;DHT22;2755;50.728;7.108;2023-03-16T05:12:26;2.60;69.90
5466;DHT22;2755;50.728;7.108;2023-03-16T05:14:51;3.10;71.30
5466;DHT22;2755;50.728;7.108;2023-03-16T05:17:17;2.80;73.50
5466;DHT22;2755;50.728;7.108;2023-03-16T05:19:43;2.20;72.40
5466;DHT22;2755;50.728;7.108;2023-03-16T05:24:35;2.90;74.30
5466;DHT22;2755;50.728;7.108;2023-03-16T05:27:01;2.60;73.90
5466;DHT22;2755;50.728;7.108;2023-03-16T05:29:27;2.90;74.20
5466;DHT22;2755;50.728;7.108;2023-03-16T05:31:55;2.90;72.00
5466;DHT22;2755;50.728;7.108;2023-03-16T05:34:21;2.90;72.90
5466;DHT22;2755;50.728;7.108;2023-03-16T05:36:47;3.50;71.60
5466;DHT22;2755;50.728;7.108;2023-03-16T05:39:12;2.80;71.00
5466;DHT22;2755;50.728;7.108;2023-03-16T05:41:38;2.90;71.20
5466;DHT22;2755;50.728;7.108;2023-03-16T05:44:04;3.00;74.00
5466;DHT22;2755;50.728;7.108;2023-03-16T05:48:55;3.20;73.30
5466;DHT22;2755;50.728;7.108;2023-03-16T05:51:21;2.90;71.30
5466;DHT22;2755;50.728;7.108;2023-03-16T05:53:47;3.10;73.60
5466;DHT22;2755;50.728;7.108;2023-03-16T05:56:13;2.80;73.50
5466;DHT22;2755;50.728;7.108;2023-03-16T05:58:38;3.20;70.80
5466;DHT22;2755;50.728;7.108;2023-03-16T06:01:04;3.30;74.00
5466;DHT22;2755;50.728;7.108;2023-03-16T06:05:56;3.00;70.80
5466;DHT22;2755;50.728;7.108;2023-03-16T06:08:22;3.20;70.80
5466;DHT22;2755;50.728;7.108;2023-03-16T06:10:48;2.80;73.40
5466;DHT22;2755;50.728;7.108;2023-03-16T06:13:13;3.40;72.80
5466;DHT22;2755;50.728;7.108;2023-03-16T06:15:39;3.40;72.70
5466;DHT22;2755;50.728;7.108;2023-03-16T06:18:05;2.70;71.40
5466;DHT22;2755;50.728;7.108;2023-03-16T06:20:30;3.20;71.90
5466;DHT22;2755;50.728;7.108;2023-03-16T06:22:56;3.00;75.00
5466;DHT22;2755;50.728;7.108;2023-03-16T06:25:21;3.70;71.60
5466;DHT22;2755;50.728;7.108;2023-03-16T06:27:48;2.80;70.60
5466;DHT22;2755;50.728;7.108;2023-03-16T06:30:15;3.20;73.30
5466;DHT22;2755;50.728;7.108;2023-03-16T06:32:41;3.50;70.30
5466;DHT22;2755;50.728;7.108;2023-03-16T06:35:08;3.30;73.80
5466;DHT22;2755;50.728;7.108;2023-03-16T06:37:34;3.10;72.80
5466;DHT22;2755;50.728;7.108;2023-03-16T06:40:00;3.80;68.90
5466;DHT22;2755;50.728;7.108;2023-03-16T06:42:25;3.50;71.90
5466;DHT22;2755;50.728;7.108;2023-03-16T06:44:51;3.60;66.60
5466;DHT22;2755;50.728;7.108;2023-03-16T06:47:17;4.00;66.10
5466;DHT22;2755;50.728;7.108;2023-03-16T06:49:43;4.90;70.70
5466;DHT22;2755;50.728;7.108;2023-03-16T06:52:08;3.30;69.10
5466;DHT22;2755;50.728;7.108;2023-03-16T06:54:38;3.60;65.00
5466;DHT22;2755;50.728;7.108;2023-03-16T06:59:30;4.00;64.30
5466;DHT22;2755;50.728;7.108;2023-03-16T07:01:56;4.10;67.80
5466;DHT22;2755;50.728;7.108;2023-03-16T07:09:13;4.00;67.00
5466;DHT22;2755;50.728;7.108;2023-03-16T07:18:57;4.20;60.70
5466;DHT22;2755;50.728;7.108;2023-03-16T07:21:23;4.40;60.40
5466;DHT22;2755;50.728;7.108;2023-03-16T07:23:48;4.50;62.50
5466;DHT22;2755;50.728;7.108;2023-03-16T07:26:14;4.60;59.00
5466;DHT22;2755;50.728;7.108;2023-03-16T07:28:40;5.50;58.90
5466;DHT22;2755;50.728;7.108;2023-03-16T07:31:06;5.10;56.90
5466;DHT22;2755;50.728;7.108;2023-03-16T07:33:34;5.40;54.70
5466;DHT22;2755;50.728;7.108;2023-03-16T07:38:31;5.60;52.60
5466;DHT22;2755;50.728;7.108;2023-03-16T07:40:58;5.60;56.10
5466;DHT22;2755;50.728;7.108;2023-03-16T07:43:24;5.90;51.30
5466;DHT22;2755;50.728;7.108;2023-03-16T07:45:51;6.20;52.80
5466;DHT22;2755;50.728;7.108;2023-03-16T07:48:17;6.00;53.80
5466;DHT22;2755;50.728;7.108;2023-03-16T07:50:43;5.70;51.20
5466;DHT22;2755;50.728;7.108;2023-03-16T07:53:09;6.00;49.70
5466;DHT22;2755;50.728;7.108;2023-03-16T07:55:35;5.80;48.80
5466;DHT22;2755;50.728;7.108;2023-03-16T08:00:29;6.10;51.10
5466;DHT22;2755;50.728;7.108;2023-03-16T08:07:47;6.50;51.00
5466;DHT22;2755;50.728;7.108;2023-03-16T08:10:13;5.90;49.70
5466;DHT22;2755;50.728;7.108;2023-03-16T08:15:06;6.10;51.20
5466;DHT22;2755;50.728;7.108;2023-03-16T08:17:32;6.00;50.70
5466;DHT22;2755;50.728;7.108;2023-03-16T08:19:58;6.10;49.10
5466;DHT22;2755;50.728;7.108;2023-03-16T08:22:24;5.80;49.90
5466;DHT22;2755;50.728;7.108;2023-03-16T08:24:50;5.80;47.50
5466;DHT22;2755;50.728;7.108;2023-03-16T08:32:10;6.90;47.20
5466;DHT22;2755;50.728;7.108;2023-03-16T08:34:36;6.30;48.20
5466;DHT22;2755;50.728;7.108;2023-03-16T08:37:04;6.70;48.80
5466;DHT22;2755;50.728;7.108;2023-03-16T08:41:57;7.00;49.60
5466;DHT22;2755;50.728;7.108;2023-03-16T08:44:23;6.40;46.70
5466;DHT22;2755;50.728;7.108;2023-03-16T08:46:50;6.70;48.10
5466;DHT22;2755;50.728;7.108;2023-03-16T08:49:16;7.00;48.00
5466;DHT22;2755;50.728;7.108;2023-03-16T08:54:07;7.10;47.60
5466;DHT22;2755;50.728;7.108;2023-03-16T08:56:33;8.00;45.50
5466;DHT22;2755;50.728;7.108;2023-03-16T08:58:58;7.50;45.70
5466;DHT22;2755;50.728;7.108;2023-03-16T09:01:24;7.10;46.00
5466;DHT22;2755;50.728;7.108;2023-03-16T09:03:50;7.60;47.00
5466;DHT22;2755;50.728;7.108;2023-03-16T09:08:43;7.60;45.00
5466;DHT22;2755;50.728;7.108;2023-03-16T09:11:14;7.20;42.70
5466;DHT22;2755;50.728;7.108;2023-03-16T09:13:41;7.50;46.90
5466;DHT22;2755;50.728;7.108;2023-03-16T09:16:08;7.10;42.50
5466;DHT22;2755;50.728;7.108;2023-03-16T09:18:34;7.00;42.10
5466;DHT22;2755;50.728;7.108;2023-03-16T09:21:02;7.10;42.90
5466;DHT22;2755;50.728;7.108;2023-03-16T09:23:29;7.10;46.70
5466;DHT22;2755;50.728;7.108;2023-03-16T09:25:59;7.40;45.60
5466;DHT22;2755;50.728;7.108;2023-03-16T09:28:26;7.40;43.20
5466;DHT22;2755;50.728;7.108;2023-03-16T09:30:55;7.90;46.40
5466;DHT22;2755;50.728;7.108;2023-03-16T09:33:22;8.20;39.60
5466;DHT22;2755;50.728;7.108;2023-03-16T09:43:19;8.80;36.20
5466;DHT22;2755;50.728;7.108;2023-03-16T09:48:21;9.10;33.90
5466;DHT22;2755;50.728;7.108;2023-03-16T09:53:38;8.70;33.70
5466;DHT22;2755;50.728;7.108;2023-03-16T09:56:15;8.60;34.10
5466;DHT22;2755;50.728;7.108;2023-03-16T09:58:41;8.20;37.10
5466;DHT22;2755;50.728;7.108;2023-03-16T10:06:48;8.30;36.40
5466;DHT22;2755;50.728;7.108;2023-03-16T10:09:27;8.30;33.40
5466;DHT22;2755;50.728;7.108;2023-03-16T10:11:57;8.20;33.00
5466;DHT22;2755;50.728;7.108;2023-03-16T10:17:01;7.90;35.50
5466;DHT22;2755;50.728;7.108;2023-03-16T10:21:56;8.20;34.50
5466;DHT22;2755;50.728;7.108;2023-03-16T10:27:02;8.10;37.40
5466;DHT22;2755;50.728;7.108;2023-03-16T10:29:33;8.20;37.80
5466;DHT22;2755;50.728;7.108;2023-03-16T10:32:10;8.10;34.90
5466;DHT22;2755;50.728;7.108;2023-03-16T10:34:36;8.10;37.90
5466;DHT22;2755;50.728;7.108;2023-03-16T10:37:04;7.30;38.00
5466;DHT22;2755;50.728;7.108;2023-03-16T10:39:35;8.30;34.00
5466;DHT22;2755;50.728;7.108;2023-03-16T10:44:28;8.40;33.50
5466;DHT22;2755;50.728;7.108;2023-03-16T10:47:03;8.70;31.80
5466;DHT22;2755;50.728;7.108;2023-03-16T10:49:41;9.00;32.80
5466;DHT22;2755;50.728;7.108;2023-03-16T10:52:39;9.30;30.00
5466;DHT22;2755;50.728;7.108;2023-03-16T10:57:46;9.80;32.60
5466;DHT22;2755;50.728;7.108;2023-03-16T11:00:29;10.10;26.70
5466;DHT22;2755;50.728;7.108;2023-03-16T11:02:59;11.00;25.40
5466;DHT22;2755;50.728;7.108;2023-03-16T11:05:31;11.10;23.60
5466;DHT22;2755;50.728;7.108;2023-03-16T11:10:31;10.80;19.10
5466;DHT22;2755;50.728;7.108;2023-03-16T11:13:03;11.10;17.70
5466;DHT22;2755;50.728;7.108;2023-03-16T11:15:44;11.10;19.40
5466;DHT22;2755;50.728;7.108;2023-03-16T11:21:06;11.30;16.70
5466;DHT22;2755;50.728;7.108;2023-03-16T11:23:34;11.70;19.60
5466;DHT22;2755;50.728;7.108;2023-03-16T11:26:07;11.70;20.20
5466;DHT22;2755;50.728;7.108;2023-03-16T11:28:38;12.40;14.20
5466;DHT22;2755;50.728;7.108;2023-03-16T11:33:32;12.80;11.60
5466;DHT22;2755;50.728;7.108;2023-03-16T11:42:04;13.40;7.40
5466;DHT22;2755;50.728;7.108;2023-03-16T11:50:12;13.60;2.90
5466;DHT22;2755;50.728;7.108;2023-03-16T11:52:58;13.10;3.00
5466;DHT22;2755;50.728;7.108;2023-03-16T11:55:38;12.80;7.40
5466;DHT22;2755;50.728;7.108;2023-03-16T11:58:27;13.60;4.60
5466;DHT22;2755;50.728;7.108;2023-03-16T12:03:47;14.10;1.10
5466;DHT22;2755;50.728;7.108;2023-03-16T12:12:04;14.90;1.00
5466;DHT22;2755;50.728;7.108;2023-03-16T12:14:40;14.10;1.00
5466;DHT22;2755;50.728;7.108;2023-03-16T12:17:08;13.70;1.00
5466;DHT22;2755;50.728;7.108;2023-03-16T12:19:52;14.00;1.00
5466;DHT22;2755;50.728;7.108;2023-03-16T12:22:27;14.10;1.00
5466;DHT22;2755;50.728;7.108;2023-03-16T12:27:34;13.40;1.00
5466;DHT22;2755;50.728;7.108;2023-03-16T12:38:59;12.40;2.40
5466;DHT22;2755;50.728;7.108;2023-03-16T12:41:58;12.40;1.90
5466;DHT22;2755;50.728;7.108;2023-03-16T12:49:44;12.30;1.70
5466;DHT22;2755;50.728;7.108;2023-03-16T12:52:11;12.50;5.20
5466;DHT22;2755;50.728;7.108;2023-03-16T12:54:52;12.30;3.70
5466;DHT22;2755;50.728;7.108;2023-03-16T12:57:19;10.60;2.60
5466;DHT22;2755;50.728;7.108;2023-03-16T13:02:25;12.60;3.70
5466;DHT22;2755;50.728;7.108;2023-03-16T13:05:00;12.50;1.90
5466;DHT22;2755;50.728;7.108;2023-03-16T13:07:28;12.50;4.70
5466;DHT22;2755;50.728;7.108;2023-03-16T13:09:59;12.30;4.80
5466;DHT22;2755;50.728;7.108;2023-03-16T13:12:31;12.50;1.00
5466;DHT22;2755;50.728;7.108;2023-03-16T13:17:32;12.40;1.30
5466;DHT22;2755;50.728;7.108;2023-03-16T13:26:14;12.60;1.00
5466;DHT22;2755;50.728;7.108;2023-03-16T13:28:41;12.50;1.00
5466;DHT22;2755;50.728;7.108;2023-03-16T13:31:23;12.40;3.90
5466;DHT22;2755;50.728;7.108;2023-03-16T13:33:52;12.20;3.60
5466;DHT22;2755;50.728;7.108;2023-03-16T13:36:20;12.40;2.90
5466;DHT22;2755;50.728;7.108;2023-03-16T13:38:55;12.20;1.60
5466;DHT22;2755;50.728;7.108;2023-03-16T13:41:21;12.30;5.50
5466;DHT22;2755;50.728;7.108;2023-03-16T13:43:47;12.30;3.20
5466;DHT22;2755;50.728;7.108;2023-03-16T13:46:15;12.10;1.30
5466;DHT22;2755;50.728;7.108;2023-03-16T13:48:41;12.20;4.40
5466;DHT22;2755;50.728;7.108;2023-03-16T13:51:13;12.40;3.60
5466;DHT22;2755;50.728;7.108;2023-03-16T13:58:38;12.40;4.30
5466;DHT22;2755;50.728;7.108;2023-03-16T14:01:17;10.60;1.00
5466;DHT22;2755;50.728;7.108;2023-03-16T14:06:25;12.20;1.80
5466;DHT22;2755;50.728;7.108;2023-03-16T14:09:33;12.10;2.10
5466;DHT22;2755;50.728;7.108;2023-03-16T14:14:27;12.50;2.10
5466;DHT22;2755;50.728;7.108;2023-03-16T14:16:59;12.10;1.90
5466;DHT22;2755;50.728;7.108;2023-03-16T14:19:26;12.50;1.40
5466;DHT22;2755;50.728;7.108;2023-03-16T14:22:01;12.50;2.80
5466;DHT22;2755;50.728;7.108;2023-03-16T14:24:36;12.30;4.00
5466;DHT22;2755;50.728;7.108;2023-03-16T14:29:44;11.70;2.30
5466;DHT22;2755;50.728;7.108;2023-03-16T14:32:31;11.90;3.10
5466;DHT22;2755;50.728;7.108;2023-03-16T14:35:19;11.80;2.00
5466;DHT22;2755;50.728;7.108;2023-03-16T14:37:45;12.50;4.10
5466;DHT22;2755;50.728;7.108;2023-03-16T14:40:29;11.90;4.80
5466;DHT22;2755;50.728;7.108;2023-03-16T14:43:00;11.90;2.80
5466;DHT22;2755;50.728;7.108;2023-03-16T14:45:34;11.80;3.00
5466;DHT22;2755;50.728;7.108;2023-03-16T14:48:15;11.70;4.10
5466;DHT22;2755;50.728;7.108;2023-03-16T14:50:48;11.60;4.80
5466;DHT22;2755;50.728;7.108;2023-03-16T14:53:16;12.10;5.20
5466;DHT22;2755;50.728;7.108;2023-03-16T15:00:34;11.80;5.00
5466;DHT22;2755;50.728;7.108;2023-03-16T15:03:06;12.10;5.30
5466;DHT22;2755;50.728;7.108;2023-03-16T15:05:35;11.90;4.40
5466;DHT22;2755;50.728;7.108;2023-03-16T15:08:02;11.60;7.30
5466;DHT22;2755;50.728;7.108;2023-03-16T15:10:31;11.70;7.60
5466;DHT22;2755;50.728;7.108;2023-03-16T15:12:59;11.70;5.50
5466;DHT22;2755;50.728;7.108;2023-03-16T15:15:39;11.70;5.90
5466;DHT22;2755;50.728;7.108;2023-03-16T15:20:40;11.80;6.00
5466;DHT22;2755;50.728;7.108;2023-03-16T15:23:12;11.90;6.60
5466;DHT22;2755;50.728;7.108;2023-03-16T15:25:42;11.90;7.90
5466;DHT22;2755;50.728;7.108;2023-03-16T15:28:19;12.40;8.20
5466;DHT22;2755;50.728;7.108;2023-03-16T15:30:56;12.00;6.00
5466;DHT22;2755;50.728;7.108;2023-03-16T15:33:22;12.00;6.40
5466;DHT22;2755;50.728;7.108;2023-03-16T15:35:49;11.90;7.00
5466;DHT22;2755;50.728;7.108;2023-03-16T15:38:36;11.70;7.80
5466;DHT22;2755;50.728;7.108;2023-03-16T15:41:08;11.80;10.70
5466;DHT22;2755;50.728;7.108;2023-03-16T15:46:01;11.30;8.70
5466;DHT22;2755;50.728;7.108;2023-03-16T15:51:00;11.60;8.90
5466;DHT22;2755;50.728;7.108;2023-03-16T15:56:00;11.50;9.80
5466;DHT22;2755;50.728;7.108;2023-03-16T15:58:28;11.50;12.60
5466;DHT22;2755;50.728;7.108;2023-03-16T16:00:56;11.40;11.50
5466;DHT22;2755;50.728;7.108;2023-03-16T16:03:24;11.30;11.50
5466;DHT22;2755;50.728;7.108;2023-03-16T16:05:50;11.50;11.10
5466;DHT22;2755;50.728;7.108;2023-03-16T16:08:17;11.50;12.30
5466;DHT22;2755;50.728;7.108;2023-03-16T16:10:45;11.40;13.60
5466;DHT22;2755;50.728;7.108;2023-03-16T16:13:24;11.30;12.00
5466;DHT22;2755;50.728;7.108;2023-03-16T16:15:51;11.40;12.70
5466;DHT22;2755;50.728;7.108;2023-03-16T16:18:37;11.30;12.60
5466;DHT22;2755;50.728;7.108;2023-03-16T16:26:02;11.10;13.00
5466;DHT22;2755;50.728;7.108;2023-03-16T16:28:31;10.70;15.00
5466;DHT22;2755;50.728;7.108;2023-03-16T16:30:58;11.20;14.70
5466;DHT22;2755;50.728;7.108;2023-03-16T16:33:33;11.40;14.70
5466;DHT22;2755;50.728;7.108;2023-03-16T16:38:30;10.90;14.30
5466;DHT22;2755;50.728;7.108;2023-03-16T16:40:59;10.80;15.50
5466;DHT22;2755;50.728;7.108;2023-03-16T16:43:40;11.00;16.30
5466;DHT22;2755;50.728;7.108;2023-03-16T16:46:15;11.00;13.20
5466;DHT22;2755;50.728;7.108;2023-03-16T16:48:44;10.90;13.40
5466;DHT22;2755;50.728;7.108;2023-03-16T16:51:20;10.90;14.70
5466;DHT22;2755;50.728;7.108;2023-03-16T16:53:46;10.80;14.50
5466;DHT22;2755;50.728;7.108;2023-03-16T16:56:13;10.80;13.20
5466;DHT22;2755;50.728;7.108;2023-03-16T16:58:41;10.40;14.30
5466;DHT22;2755;50.728;7.108;2023-03-16T17:01:12;10.80;16.60
5466;DHT22;2755;50.728;7.108;2023-03-16T17:06:05;10.00;16.10
5466;DHT22;2755;50.728;7.108;2023-03-16T17:08:31;10.50;14.50
5466;DHT22;2755;50.728;7.108;2023-03-16T17:10:56;10.50;14.30
5466;DHT22;2755;50.728;7.108;2023-03-16T17:13:37;10.70;16.10
5466;DHT22;2755;50.728;7.108;2023-03-16T17:16:04;10.20;16.40
5466;DHT22;2755;50.728;7.108;2023-03-16T17:18:30;11.00;15.10
5466;DHT22;2755;50.728;7.108;2023-03-16T17:23:33;11.40;15.40
5466;DHT22;2755;50.728;7.108;2023-03-16T17:26:16;10.50;15.40
5466;DHT22;2755;50.728;7.108;2023-03-16T17:28:46;10.20;16.50
5466;DHT22;2755;50.728;7.108;2023-03-16T17:31:18;10.30;15.80
5466;DHT22;2755;50.728;7.108;2023-03-16T17:33:45;10.00;17.50
5466;DHT22;2755;50.728;7.108;2023-03-16T17:36:14;10.20;15.80
5466;DHT22;2755;50.728;7.108;2023-03-16T17:38:40;9.90;16.90
5466;DHT22;2755;50.728;7.108;2023-03-16T17:41:21;10.10;15.60
5466;DHT22;2755;50.728;7.108;2023-03-16T17:43:49;10.00;16.20
5466;DHT22;2755;50.728;7.108;2023-03-16T17:46:17;10.10;18.60
5466;DHT22;2755;50.728;7.108;2023-03-16T17:51:14;10.50;16.80
5466;DHT22;2755;50.728;7.108;2023-03-16T17:53:41;9.90;17.40
5466;DHT22;2755;50.728;7.108;2023-03-16T17:56:19;9.90;16.60
5466;DHT22;2755;50.728;7.108;2023-03-16T17:58:50;9.30;19.50
5466;DHT22;2755;50.728;7.108;2023-03-16T18:01:17;10.00;17.30
5466;DHT22;2755;50.728;7.108;2023-03-16T18:03:44;9.60;18.10
5466;DHT22;2755;50.728;7.108;2023-03-16T18:06:16;9.60;18.20
5466;DHT22;2755;50.728;7.108;2023-03-16T18:08:43;9.20;17.50
5466;DHT22;2755;50.728;7.108;2023-03-16T18:11:35;9.50;19.30
5466;DHT22;2755;50.728;7.108;2023-03-16T18:14:01;9.60;18.90
5466;DHT22;2755;50.728;7.108;2023-03-16T18:19:01;9.70;17.70
5466;DHT22;2755;50.728;7.108;2023-03-16T18:21:28;9.60;20.00
5466;DHT22;2755;50.728;7.108;2023-03-16T18:26:21;9.60;18.20
5466;DHT22;2755;50.728;7.108;2023-03-16T18:28:49;9.60;18.80
5466;DHT22;2755;50.728;7.108;2023-03-16T18:31:19;9.60;17.80
5466;DHT22;2755;50.728;7.108;2023-03-16T18:33:48;9.60;20.00
5466;DHT22;2755;50.728;7.108;2023-03-16T18:36:18;9.50;18.70
5466;DHT22;2755;50.728;7.108;2023-03-16T18:38:46;9.40;19.10
5466;DHT22;2755;50.728;7.108;2023-03-16T18:41:21;8.90;18.90
5466;DHT22;2755;50.728;7.108;2023-03-16T18:43:49;9.50;18.80
5466;DHT22;2755;50.728;7.108;2023-03-16T18:46:25;9.40;19.00
5466;DHT22;2755;50.728;7.108;2023-03-16T18:48:53;9.50;20.00
5466;DHT22;2755;50.728;7.108;2023-03-16T18:56:20;9.50;19.10
5466;DHT22;2755;50.728;7.108;2023-03-16T18:58:47;8.80;22.50
5466;DHT22;2755;50.728;7.108;2023-03-16T19:01:40;9.50;19.80
5466;DHT22;2755;50.728;7.108;2023-03-16T19:04:35;9.40;20.00
5466;DHT22;2755;50.728;7.108;2023-03-16T19:09:29;9.40;20.40
5466;DHT22;2755;50.728;7.108;2023-03-16T19:11:55;9.20;23.90
5466;DHT22;2755;50.728;7.108;2023-03-16T19:14:25;9.30;21.30
5466;DHT22;2755;50.728;7.108;2023-03-16T19:16:52;9.10;22.30
5466;DHT22;2755;50.728;7.108;2023-03-16T19:19:19;9.10;21.70
5466;DHT22;2755;50.728;7.108;2023-03-16T19:21:51;9.80;24.60
5466;DHT22;2755;50.728;7.108;2023-03-16T19:24:27;9.20;22.00
5466;DHT22;2755;50.728;7.108;2023-03-16T19:26:54;9.00;22.30
5466;DHT22;2755;50.728;7.108;2023-03-16T19:29:26;9.90;24.20
5466;DHT22;2755;50.728;7.108;2023-03-16T19:31:54;9.40;24.80
5466;DHT22;2755;50.728;7.108;2023-03-16T19:34:20;9.60;22.90
5466;DHT22;2755;50.728;7.108;2023-03-16T19:36:46;9.40;24.00
5466;DHT22;2755;50.728;7.108;2023-03-16T19:39:14;9.30;24.80
5466;DHT22;2755;50.728;7.108;2023-03-16T19:41:40;9.20;23.00
5466;DHT22;2755;50.728;7.108;2023-03-16T19:44:26;8.80;22.90
5466;DHT22;2755;50.728;7.108;2023-03-16T19:49:26;8.70;23.20
5466;DHT22;2755;50.728;7.108;2023-03-16T19:51:53;9.10;23.70
5466;DHT22;2755;50.728;7.108;2023-03-16T19:54:24;9.60;26.00
5466;DHT22;2755;50.728;7.108;2023-03-16T19:56:51;9.00;25.70
5466;DHT22;2755;50.728;7.108;2023-03-16T19:59:17;8.90;23.40
5466;DHT22;2755;50.728;7.108;2023-03-16T20:01:44;9.10;23.70
5466;DHT22;2755;50.728;7.108;2023-03-16T20:04:20;9.40;23.90
5466;DHT22;2755;50.728;7.108;2023-03-16T20:09:13;8.20;23.30
5466;DHT22;2755;50.728;7.108;2023-03-16T20:11:39;9.10;26.50
5466;DHT22;2755;50.728;7.108;2023-03-16T20:16:34;9.20;23.90
5466;DHT22;2755;50.728;7.108;2023-03-16T20:19:02;9.60;26.50
5466;DHT22;2755;50.728;7.108;2023-03-16T20:21:29;9.00;26.10
5466;DHT22;2755;50.728;7.108;2023-03-16T20:23:55;9.10;26.30
5466;DHT22;2755;50.728;7.108;2023-03-16T20:26:24;9.40;24.40
5466;DHT22;2755;50.728;7.108;2023-03-16T20:28:51;9.20;26.20